Time;durP1;ratioP1;P1;durP2;ratioP2;P2;SDS_P1;SDS_P2;PMS_P1;PMS_P2;Temp;Humidity;BMP_temperature;BMP_pressure;BME280_temperature;BME280_humidity;BME280_pressure;Samples;Min_cycle;Max_cycle;Signal;HPM_P1;HPM_P2
2022/08/01 00:00:23;;;;;;;13.13;11.97;;;;;;;;;;4998248;28;20507;-90
2022/08/01 00:02:49;;;;;;;13.23;12.00;;;;;;;;;;4998722;28;20460;-90
2022/08/01 00:05:15;;;;;;;12.87;11.80;;;;;;;;;;4998515;28;20479;-87
2022/08/01 00:07:41;;;;;;;12.87;11.67;;;;;;;;;;4999640;28;20440;-89
2022/08/01 00:10:09;;;;;;;13.97;12.67;;;;;;;;;;4997875;28;20443;-89
2022/08/01 00:12:35;;;;;;;14.27;12.33;;;;;;;;;;5004813;28;20441;-89
2022/08/01 00:15:01;;;;;;;14.17;13.00;;;;;;;;;;5016671;28;20462;-89
2022/08/01 00:17:27;;;;;;;16.20;14.67;;;;;;;;;;4996131;28;20467;-89
2022/08/01 00:19:53;;;;;;;14.10;12.90;;;;;;;;;;4993906;28;20433;-89
2022/08/01 00:22:19;;;;;;;15.23;13.83;;;;;;;;;;4993073;28;20428;-89
2022/08/01 00:24:45;;;;;;;16.93;15.40;;;;;;;;;;4990591;28;20427;-89
2022/08/01 00:27:11;;;;;;;17.07;15.37;;;;;;;;;;4996129;28;20478;-89
2022/08/01 00:29:37;;;;;;;18.03;16.37;;;;;;;;;;4997415;28;20424;-91
2022/08/01 00:32:03;;;;;;;17.37;15.50;;;;;;;;;;4995422;28;20515;-90
2022/08/01 00:34:28;;;;;;;16.43;14.93;;;;;;;;;;4997764;28;20483;-91
2022/08/01 00:36:54;;;;;;;18.80;17.10;;;;;;;;;;4995541;28;20428;-89
2022/08/01 00:39:20;;;;;;;20.27;18.27;;;;;;;;;;4994461;28;20424;-90
2022/08/01 00:41:46;;;;;;;21.13;17.80;;;;;;;;;;4992470;28;20799;-89
2022/08/01 00:44:12;;;;;;;19.67;17.60;;;;;;;;;;4989864;28;20811;-90
2022/08/01 00:46:38;;;;;;;19.43;17.33;;;;;;;;;;4991105;28;20850;-90
2022/08/01 00:49:04;;;;;;;18.83;16.93;;;;;;;;;;4989345;28;20436;-89
2022/08/01 00:51:30;;;;;;;19.67;17.67;;;;;;;;;;4991192;28;20478;-90
2022/08/01 00:53:57;;;;;;;21.83;17.27;;;;;;;;;;4989519;28;20463;-90
2022/08/01 00:56:24;;;;;;;19.63;17.63;;;;;;;;;;4990927;28;20447;-90
2022/08/01 00:58:50;;;;;;;20.40;15.73;;;;;;;;;;4989817;28;20445;-89
2022/08/01 01:01:17;;;;;;;19.00;17.10;;;;;;;;;;4991398;28;20531;-90
2022/08/01 01:03:43;;;;;;;19.23;17.23;;;;;;;;;;4989762;28;20460;-89
2022/08/01 01:06:21;;;;;;;18.27;16.17;;;;;;;;;;4990818;28;20472;-91
2022/08/01 01:08:52;;;;;;;19.83;17.83;;;;;;;;;;5000582;28;20452;-94
2022/08/01 01:13:53;;;;;;;16.80;15.13;;;;;;;;;;5032202;28;20469;-93
2022/08/01 01:16:20;;;;;;;17.33;15.53;;;;;;;;;;5014597;28;20424;-93
2022/08/01 01:18:53;;;;;;;16.97;14.97;;;;;;;;;;5449972;23;20486;-94
2022/08/01 01:21:19;;;;;;;16.70;15.20;;;;;;;;;;5502450;23;20496;-93
2022/08/01 01:24:04;;;;;;;16.30;14.70;;;;;;;;;;5016328;28;20451;-94
2022/08/01 01:26:37;;;;;;;17.83;15.47;;;;;;;;;;5158174;23;20517;-94
2022/08/01 01:29:11;;;;;;;17.70;16.00;;;;;;;;;;5037729;28;20515;-93
2022/08/01 01:47:12;;;;;;;19.23;17.33;;;;;;;;;;1413488;23;20899;-91
2022/08/01 02:10:25;;;;;;;19.50;16.37;;;;;;;;;;5394042;23;20467;-92
2022/08/01 02:31:44;;;;;;;22.13;18.17;;;;;;;;;;5924317;23;20474;-94
2022/08/01 02:34:13;;;;;;;21.80;17.63;;;;;;;;;;5308368;23;20493;-94
2022/08/01 02:47:07;;;;;;;21.63;18.30;;;;;;;;;;5559660;22;20467;-91
2022/08/01 02:49:34;;;;;;;22.97;17.53;;;;;;;;;;5434287;23;20485;-93
2022/08/01 03:47:36;;;;;;;30.73;19.93;;;;;;;;;;5659829;22;21448;31
2022/08/01 04:37:16;;;;;;;31.80;22.17;;;;;;;;;;5650682;23;20537;-92
2022/08/01 04:39:42;;;;;;;26.50;21.83;;;;;;;;;;5683685;22;21465;-90
2022/08/01 04:44:45;;;;;;;24.70;21.10;;;;;;;;;;5178479;23;20476;-92
2022/08/01 04:47:12;;;;;;;25.83;20.70;;;;;;;;;;5728537;23;20483;-93
2022/08/01 05:02:46;;;;;;;21.00;18.67;;;;;;;;;;5571994;22;20855;-93
2022/08/01 05:05:12;;;;;;;21.03;18.17;;;;;;;;;;5015630;28;20437;-92
2022/08/01 05:10:14;;;;;;;23.07;20.37;;;;;;;;;;5164159;23;20499;-94
2022/08/01 05:12:43;;;;;;;26.40;20.67;;;;;;;;;;5056228;28;20456;-94
2022/08/01 05:15:11;;;;;;;23.77;18.83;;;;;;;;;;5068029;28;20436;-95
2022/08/01 05:17:37;;;;;;;22.60;18.57;;;;;;;;;;5054473;28;20429;-92
2022/08/01 05:20:06;;;;;;;19.87;17.70;;;;;;;;;;5116479;22;20479;-96
2022/08/01 05:22:32;;;;;;;21.57;18.07;;;;;;;;;;5030360;28;20430;-91
2022/08/01 05:24:59;;;;;;;21.20;15.87;;;;;;;;;;5003158;28;20460;-92
2022/08/01 05:27:25;;;;;;;22.80;18.47;;;;;;;;;;5015868;28;20524;-95
2022/08/01 05:29:52;;;;;;;20.70;18.17;;;;;;;;;;5033648;28;20442;-94
2022/08/01 05:32:18;;;;;;;21.27;17.30;;;;;;;;;;5035851;28;20439;-94
2022/08/01 05:34:44;;;;;;;18.87;16.83;;;;;;;;;;5015046;28;20923;-96
2022/08/01 05:37:10;;;;;;;24.63;18.60;;;;;;;;;;5024412;28;20475;-95
2022/08/01 05:39:36;;;;;;;23.87;18.13;;;;;;;;;;5032725;28;20426;-95
2022/08/01 05:42:03;;;;;;;20.50;16.33;;;;;;;;;;5009763;28;20431;-93
2022/08/01 05:44:29;;;;;;;25.00;17.27;;;;;;;;;;5129958;23;20473;-92
2022/08/01 05:49:30;;;;;;;19.07;17.10;;;;;;;;;;4637262;26;20485;-93
2022/08/01 05:51:56;;;;;;;23.00;17.17;;;;;;;;;;5012322;28;20444;-92
2022/08/01 05:54:25;;;;;;;17.47;15.07;;;;;;;;;;5426721;23;20521;-94
2022/08/01 05:56:51;;;;;;;15.83;14.30;;;;;;;;;;5009542;28;20423;-94
2022/08/01 05:59:18;;;;;;;17.57;15.67;;;;;;;;;;5013426;28;20446;-93
2022/08/01 06:01:43;;;;;;;19.63;17.73;;;;;;;;;;4982184;28;20452;-92
2022/08/01 06:04:09;;;;;;;18.90;16.67;;;;;;;;;;4997726;28;20470;-92
2022/08/01 06:06:35;;;;;;;23.30;17.10;;;;;;;;;;4979877;28;20479;-92
2022/08/01 06:09:01;;;;;;;18.27;16.37;;;;;;;;;;4992055;28;20447;-94
2022/08/01 06:11:27;;;;;;;16.97;14.30;;;;;;;;;;4982355;28;20444;-92
2022/08/01 06:13:53;;;;;;;18.90;16.70;;;;;;;;;;4996667;28;20511;-91
2022/08/01 06:16:19;;;;;;;20.93;18.47;;;;;;;;;;5000325;28;20518;-91
2022/08/01 06:18:45;;;;;;;19.10;17.20;;;;;;;;;;4997020;28;20436;-92
2022/08/01 06:21:11;;;;;;;20.43;18.17;;;;;;;;;;4979793;28;20407;-92
2022/08/01 06:23:37;;;;;;;20.13;18.00;;;;;;;;;;4291295;28;10000615;-92
2022/08/01 06:26:03;;;;;;;18.40;16.47;;;;;;;;;;4977713;28;20830;-91
2022/08/01 06:28:29;;;;;;;17.73;15.93;;;;;;;;;;4984520;28;20455;-93
2022/08/01 06:30:55;;;;;;;19.63;17.80;;;;;;;;;;4980733;28;20408;-93
2022/08/01 06:33:21;;;;;;;19.77;17.67;;;;;;;;;;4983463;28;20585;-92
2022/08/01 06:35:47;;;;;;;21.07;18.37;;;;;;;;;;5004893;28;20420;-93
2022/08/01 06:38:14;;;;;;;20.90;18.90;;;;;;;;;;4986788;28;20429;-93
2022/08/01 06:40:40;;;;;;;19.07;17.23;;;;;;;;;;5004374;28;20487;-91
2022/08/01 06:43:06;;;;;;;18.17;16.27;;;;;;;;;;4991957;28;20449;-92
2022/08/01 06:45:32;;;;;;;15.97;14.50;;;;;;;;;;4996725;28;20499;-91
2022/08/01 06:47:58;;;;;;;11.90;11.00;;;;;;;;;;4999357;28;20436;-91
2022/08/01 06:50:24;;;;;;;12.73;11.73;;;;;;;;;;4985821;28;20456;-90
2022/08/01 06:52:53;;;;;;;12.50;11.30;;;;;;;;;;4989676;28;20449;-92
2022/08/01 06:55:31;;;;;;;12.50;11.47;;;;;;;;;;4993318;28;20472;-93
2022/08/01 06:57:57;;;;;;;10.20;9.50;;;;;;;;;;5242573;23;20499;-92
2022/08/01 07:00:24;;;;;;;11.47;10.67;;;;;;;;;;5094151;23;20499;-91
2022/08/01 07:02:53;;;;;;;12.53;11.30;;;;;;;;;;5019951;28;20535;-94
2022/08/01 07:05:22;;;;;;;12.00;11.20;;;;;;;;;;4982159;28;20536;-92
2022/08/01 07:07:48;;;;;;;10.33;9.50;;;;;;;;;;5005605;28;20877;-95
2022/08/01 07:10:15;;;;;;;10.00;9.10;;;;;;;;;;4981848;28;20547;-87
2022/08/01 07:12:41;;;;;;;9.30;8.53;;;;;;;;;;4976299;28;21236;-90
2022/08/01 07:15:08;;;;;;;8.53;7.90;;;;;;;;;;4975594;28;20463;-89
2022/08/01 07:17:43;;;;;;;8.63;8.03;;;;;;;;;;4989543;28;20436;-91
2022/08/01 07:20:10;;;;;;;8.00;7.50;;;;;;;;;;5002242;28;20452;-88
2022/08/01 07:22:37;;;;;;;7.70;7.10;;;;;;;;;;4985815;28;20461;-92
2022/08/01 07:25:04;;;;;;;6.90;6.60;;;;;;;;;;4975063;28;20444;-92
2022/08/01 07:27:30;;;;;;;7.20;6.90;;;;;;;;;;5011057;28;20526;-93
2022/08/01 07:29:56;;;;;;;6.30;6.00;;;;;;;;;;4994516;28;20484;-93
2022/08/01 07:32:22;;;;;;;5.23;5.03;;;;;;;;;;4985233;28;20448;-92
2022/08/01 07:34:48;;;;;;;4.80;4.70;;;;;;;;;;4987303;28;20444;-91
2022/08/01 07:37:14;;;;;;;4.67;4.53;;;;;;;;;;5001236;28;20467;-91
2022/08/01 07:39:40;;;;;;;4.00;3.90;;;;;;;;;;5004680;28;20444;-92
2022/08/01 07:42:06;;;;;;;3.33;3.23;;;;;;;;;;4990064;28;20448;-92
2022/08/01 07:44:34;;;;;;;4.07;3.87;;;;;;;;;;4990789;28;20440;-91
2022/08/01 07:47:00;;;;;;;4.10;3.90;;;;;;;;;;4971429;28;20467;-93
2022/08/01 07:49:26;;;;;;;3.73;3.60;;;;;;;;;;4999061;28;20472;-94
2022/08/01 07:51:52;;;;;;;3.20;3.00;;;;;;;;;;5010565;28;20442;-92
2022/08/01 07:54:18;;;;;;;3.23;3.13;;;;;;;;;;4984444;28;20448;-93
2022/08/01 07:56:51;;;;;;;3.00;3.00;;;;;;;;;;4992592;28;20436;-94
2022/08/01 07:59:22;;;;;;;3.23;3.03;;;;;;;;;;5006313;28;20458;-92
2022/08/01 08:01:48;;;;;;;3.10;3.00;;;;;;;;;;5234949;23;20488;-90
2022/08/01 08:04:18;;;;;;;3.17;3.17;;;;;;;;;;5058745;28;20458;-93
2022/08/01 08:06:44;;;;;;;2.40;2.40;;;;;;;;;;5030943;28;20450;-94
2022/08/01 08:09:12;;;;;;;2.67;2.67;;;;;;;;;;5047718;28;20457;-89
2022/08/01 08:11:38;;;;;;;3.07;3.07;;;;;;;;;;5028018;28;20423;-87
2022/08/01 08:14:04;;;;;;;1.93;1.93;;;;;;;;;;5012065;28;20459;-87
2022/08/01 08:16:30;;;;;;;1.57;1.57;;;;;;;;;;4992592;28;20954;-88
2022/08/01 08:18:56;;;;;;;1.90;1.87;;;;;;;;;;5020253;28;20446;-87
2022/08/01 08:21:22;;;;;;;1.70;1.70;;;;;;;;;;5002004;28;20921;-86
2022/08/01 08:26:33;;;;;;;1.90;1.90;;;;;;;;;;5031790;28;20554;-87
2022/08/01 08:28:59;;;;;;;1.83;1.83;;;;;;;;;;5027894;28;20431;-87
2022/08/01 08:31:25;;;;;;;1.90;1.80;;;;;;;;;;5023613;28;20429;-90
2022/08/01 08:33:51;;;;;;;1.70;1.70;;;;;;;;;;5022381;28;20424;-88
2022/08/01 08:36:17;;;;;;;1.40;1.40;;;;;;;;;;4994940;28;20420;-87
2022/08/01 08:38:43;;;;;;;2.10;2.10;;;;;;;;;;5012710;28;20512;-87
2022/08/01 08:41:09;;;;;;;1.70;1.57;;;;;;;;;;5006215;28;20526;-87
2022/08/01 08:43:35;;;;;;;2.40;2.30;;;;;;;;;;5003437;28;20428;-83
2022/08/01 08:46:02;;;;;;;3.10;3.10;;;;;;;;;;5000262;28;20462;-86
2022/08/01 08:48:28;;;;;;;3.70;3.60;;;;;;;;;;5000471;28;20446;-86
2022/08/01 08:50:55;;;;;;;3.00;3.00;;;;;;;;;;5003566;28;20913;-87
2022/08/01 08:53:22;;;;;;;3.90;3.47;;;;;;;;;;5027232;28;20509;-87
2022/08/01 08:55:48;;;;;;;4.43;4.10;;;;;;;;;;5022181;28;20450;-88
2022/08/01 08:58:18;;;;;;;4.30;4.10;;;;;;;;;;5026209;28;20436;-88
2022/08/01 09:00:44;;;;;;;4.20;4.00;;;;;;;;;;4997225;28;20480;-87
2022/08/01 09:03:10;;;;;;;4.63;4.53;;;;;;;;;;4307333;28;10000741;-86
2022/08/01 09:05:36;;;;;;;3.70;3.60;;;;;;;;;;4998081;28;20262;-87
2022/08/01 09:08:02;;;;;;;3.40;3.23;;;;;;;;;;5009525;28;20963;-86
2022/08/01 09:10:28;;;;;;;4.00;3.90;;;;;;;;;;4997438;28;20440;-87
2022/08/01 09:13:11;;;;;;;4.40;4.40;;;;;;;;;;5014753;28;20465;-87
2022/08/01 09:15:41;;;;;;;5.00;4.67;;;;;;;;;;5001776;28;20436;-88
2022/08/01 09:18:07;;;;;;;5.27;4.97;;;;;;;;;;4999490;28;20446;-88
2022/08/01 09:20:36;;;;;;;3.70;3.60;;;;;;;;;;5010101;28;20435;-88
2022/08/01 09:23:03;;;;;;;3.90;3.80;;;;;;;;;;5016795;28;20431;-87
2022/08/01 09:25:32;;;;;;;3.30;3.20;;;;;;;;;;5012183;28;20446;-88
2022/08/01 09:28:06;;;;;;;2.50;2.50;;;;;;;;;;5029541;28;20434;-86
2022/08/01 09:30:39;;;;;;;2.63;2.53;;;;;;;;;;5001323;28;20442;-86
2022/08/01 09:33:05;;;;;;;2.70;2.50;;;;;;;;;;4666750;28;10000261;-87
2022/08/01 09:35:34;;;;;;;2.70;2.60;;;;;;;;;;5005006;28;20200;-88
2022/08/01 09:38:20;;;;;;;4.47;2.60;;;;;;;;;;5009171;28;20522;-87
2022/08/01 09:40:52;;;;;;;1.97;1.97;;;;;;;;;;5002287;28;21171;-87
2022/08/01 09:43:19;;;;;;;2.90;2.90;;;;;;;;;;5007597;28;20450;-87
2022/08/01 09:45:45;;;;;;;3.33;3.20;;;;;;;;;;5018380;28;20470;-87
2022/08/01 09:48:15;;;;;;;2.63;2.43;;;;;;;;;;4998700;28;20430;-88
2022/08/01 09:50:48;;;;;;;2.00;2.00;;;;;;;;;;4656312;28;10000284;-89
2022/08/01 09:53:15;;;;;;;2.00;2.00;;;;;;;;;;5021718;28;20418;-88
2022/08/01 09:55:41;;;;;;;2.50;2.40;;;;;;;;;;5010957;28;20474;-88
2022/08/01 09:58:07;;;;;;;2.47;2.23;;;;;;;;;;5014802;28;20572;-90
2022/08/01 10:00:34;;;;;;;1.87;1.87;;;;;;;;;;5028014;28;20439;-89
2022/08/01 10:03:00;;;;;;;1.97;1.97;;;;;;;;;;5016534;28;20964;-89
2022/08/01 10:05:33;;;;;;;2.40;2.40;;;;;;;;;;5022426;28;20430;-87
2022/08/01 10:08:01;;;;;;;2.20;2.20;;;;;;;;;;5012495;28;20511;-87
2022/08/01 10:10:27;;;;;;;1.80;1.80;;;;;;;;;;5008387;28;20814;-88
2022/08/01 10:12:54;;;;;;;1.57;1.57;;;;;;;;;;5027702;28;20423;-88
2022/08/01 10:15:21;;;;;;;1.80;1.80;;;;;;;;;;5029405;28;20417;-88
2022/08/01 10:18:06;;;;;;;1.60;1.60;;;;;;;;;;5032065;28;20430;-88
2022/08/01 10:20:33;;;;;;;1.87;1.87;;;;;;;;;;4652936;28;10001464;-88
2022/08/01 10:23:00;;;;;;;1.50;1.50;;;;;;;;;;5009057;28;20731;-88
2022/08/01 10:25:28;;;;;;;1.50;1.50;;;;;;;;;;5006541;28;20960;-89
2022/08/01 10:30:55;;;;;;;1.73;1.73;;;;;;;;;;5045903;28;20515;-94
2022/08/01 10:33:25;;;;;;;1.60;1.60;;;;;;;;;;5034123;28;21041;-92
2022/08/01 10:35:54;;;;;;;1.40;1.40;;;;;;;;;;5009608;28;20454;-90
2022/08/01 10:38:21;;;;;;;1.63;1.63;;;;;;;;;;5026283;28;20421;-92
2022/08/01 10:40:48;;;;;;;3.00;3.00;;;;;;;;;;5040913;28;20426;-91
2022/08/01 10:43:17;;;;;;;2.70;2.60;;;;;;;;;;5017297;28;20428;-94
2022/08/01 10:45:47;;;;;;;2.03;2.03;;;;;;;;;;5021129;28;20426;-93
2022/08/01 10:48:30;;;;;;;2.27;2.27;;;;;;;;;;5028526;28;20435;-90
2022/08/01 10:51:03;;;;;;;2.50;2.50;;;;;;;;;;5013473;28;20458;-90
2022/08/01 10:53:32;;;;;;;1.70;1.70;;;;;;;;;;5039219;28;20446;-93
2022/08/01 10:56:07;;;;;;;2.00;1.90;;;;;;;;;;5006789;28;20444;-92
2022/08/01 10:58:53;;;;;;;2.50;2.50;;;;;;;;;;5018085;28;20433;-92
2022/08/01 11:01:20;;;;;;;2.13;2.03;;;;;;;;;;5008246;28;20852;-93
2022/08/01 11:04:11;;;;;;;2.00;1.90;;;;;;;;;;5025790;28;20454;-90
2022/08/01 11:06:51;;;;;;;2.47;2.37;;;;;;;;;;5004645;28;20482;-92
2022/08/01 11:09:19;;;;;;;2.40;2.40;;;;;;;;;;5018107;28;20437;-93
2022/08/01 11:12:06;;;;;;;2.30;2.30;;;;;;;;;;5025265;28;20480;-94
2022/08/01 11:14:33;;;;;;;2.27;2.27;;;;;;;;;;5026861;28;20500;-94
2022/08/01 11:17:18;;;;;;;2.47;2.37;;;;;;;;;;5044165;28;20487;-93
2022/08/01 11:20:02;;;;;;;1.93;1.93;;;;;;;;;;5017245;28;20430;-88
2022/08/01 11:22:28;;;;;;;2.93;2.07;;;;;;;;;;5028047;28;20940;-89
2022/08/01 11:24:56;;;;;;;2.27;2.27;;;;;;;;;;5026718;28;20434;-90
2022/08/01 11:27:31;;;;;;;2.33;2.23;;;;;;;;;;5014819;28;20454;-90
2022/08/01 11:30:10;;;;;;;2.13;2.13;;;;;;;;;;5024453;28;20442;-89
2022/08/01 11:32:55;;;;;;;5.37;3.00;;;;;;;;;;5013003;28;20439;-89
2022/08/01 11:35:24;;;;;;;1.87;1.87;;;;;;;;;;5009146;28;20450;-90
2022/08/01 11:37:56;;;;;;;1.87;1.87;;;;;;;;;;5035442;28;20513;-90
2022/08/01 11:40:24;;;;;;;2.00;2.00;;;;;;;;;;5008655;28;20431;-89
2022/08/01 11:42:50;;;;;;;1.73;1.70;;;;;;;;;;5023300;28;20430;-88
2022/08/01 11:45:17;;;;;;;1.23;1.23;;;;;;;;;;5021460;28;20445;-88
2022/08/01 11:47:47;;;;;;;2.97;1.50;;;;;;;;;;5031841;28;20458;-88
2022/08/01 11:50:29;;;;;;;1.50;1.50;;;;;;;;;;5035430;28;20430;-89
2022/08/01 11:53:01;;;;;;;1.60;1.53;;;;;;;;;;5017691;28;20431;-89
2022/08/01 11:55:28;;;;;;;1.97;1.77;;;;;;;;;;5015303;28;20423;-89
2022/08/01 11:58:04;;;;;;;1.30;1.30;;;;;;;;;;5027314;28;20484;-88
2022/08/01 12:00:30;;;;;;;1.40;1.40;;;;;;;;;;5041008;28;20499;-90
2022/08/01 12:03:06;;;;;;;1.30;1.30;;;;;;;;;;5013408;28;20461;-88
2022/08/01 12:05:34;;;;;;;1.50;1.50;;;;;;;;;;5017168;28;20437;-87
2022/08/01 12:08:00;;;;;;;1.30;1.30;;;;;;;;;;5006237;28;20459;-87
2022/08/01 12:10:28;;;;;;;1.30;1.30;;;;;;;;;;5018657;28;20461;-89
2022/08/01 12:12:57;;;;;;;1.40;1.40;;;;;;;;;;5017189;28;20439;-88
2022/08/01 12:15:23;;;;;;;3.30;1.63;;;;;;;;;;5023447;28;20769;-89
2022/08/01 12:18:00;;;;;;;1.40;1.40;;;;;;;;;;5034413;28;20422;-88
2022/08/01 12:20:28;;;;;;;2.10;2.10;;;;;;;;;;5031752;28;20422;-88
2022/08/01 12:22:55;;;;;;;3.67;2.27;;;;;;;;;;5034347;28;20430;-89
2022/08/01 12:25:30;;;;;;;1.87;1.87;;;;;;;;;;5022554;23;20543;-95
2022/08/01 12:55:58;;;;;;;1.93;1.83;;;;;;;;;;4411338;23;20458;-89
2022/08/01 13:56:00;;;;;;;2.23;2.23;;;;;;;;;;5115350;23;20491;-92
2022/08/01 13:58:57;;;;;;;2.40;2.30;;;;;;;;;;5006913;28;20475;-92
2022/08/01 14:09:29;;;;;;;2.40;2.27;;;;;;;;;;2850484;23;20460;-92
2022/08/01 14:14:37;;;;;;;3.10;2.30;;;;;;;;;;5276671;23;20491;-90
2022/08/01 14:17:21;;;;;;;2.40;2.30;;;;;;;;;;4995874;28;20424;-92
2022/08/01 14:20:41;;;;;;;2.70;2.67;;;;;;;;;;4941863;28;20433;-91
2022/08/01 14:28:19;;;;;;;1.70;1.70;;;;;;;;;;5041794;23;20510;-89
2022/08/01 14:30:48;;;;;;;1.90;1.80;;;;;;;;;;5001110;28;20910;-89
2022/08/01 14:33:14;;;;;;;2.60;2.50;;;;;;;;;;5012744;28;20424;-92
2022/08/01 14:35:41;;;;;;;3.03;3.03;;;;;;;;;;4996275;28;20439;-91
2022/08/01 14:38:11;;;;;;;2.27;2.27;;;;;;;;;;5003314;28;20440;-90
2022/08/01 14:40:37;;;;;;;2.10;2.10;;;;;;;;;;4989324;28;20977;-92
2022/08/01 14:43:03;;;;;;;1.80;1.80;;;;;;;;;;5008620;28;20443;-90
2022/08/01 14:45:33;;;;;;;2.40;2.30;;;;;;;;;;5008957;28;20538;-91
2022/08/01 14:48:01;;;;;;;2.23;2.23;;;;;;;;;;4997410;28;20467;-91
2022/08/01 14:50:36;;;;;;;2.10;2.10;;;;;;;;;;5018342;28;20426;-92
2022/08/01 14:53:02;;;;;;;1.97;1.87;;;;;;;;;;4998987;28;20455;-91
2022/08/01 14:55:48;;;;;;;2.20;2.20;;;;;;;;;;5002317;28;20443;-94
2022/08/01 14:58:14;;;;;;;2.57;2.47;;;;;;;;;;5015193;28;20733;-91
2022/08/01 15:00:40;;;;;;;1.80;1.70;;;;;;;;;;4996247;28;20447;-91
2022/08/01 15:03:06;;;;;;;1.90;1.90;;;;;;;;;;5018980;28;20435;-93
2022/08/01 15:05:39;;;;;;;1.90;1.90;;;;;;;;;;4991021;28;20579;-91
2022/08/01 15:08:11;;;;;;;2.73;2.30;;;;;;;;;;4988944;28;20520;-91
2022/08/01 15:10:37;;;;;;;2.70;2.67;;;;;;;;;;4998053;28;20443;-91
2022/08/01 15:13:05;;;;;;;2.77;2.57;;;;;;;;;;5000057;28;20428;-90
2022/08/01 15:15:38;;;;;;;2.63;2.50;;;;;;;;;;5001420;28;20424;-90
2022/08/01 15:18:04;;;;;;;2.30;2.30;;;;;;;;;;4996887;28;20438;-91
2022/08/01 15:20:31;;;;;;;2.10;2.10;;;;;;;;;;4995808;28;20451;-89
2022/08/01 15:22:57;;;;;;;2.33;2.23;;;;;;;;;;4996720;28;20439;-90
2022/08/01 15:25:23;;;;;;;1.97;1.97;;;;;;;;;;4999041;28;20450;-93
2022/08/01 15:27:49;;;;;;;1.93;1.90;;;;;;;;;;4987792;28;20484;-92
2022/08/01 15:30:15;;;;;;;2.30;2.20;;;;;;;;;;5008255;28;20830;-91
2022/08/01 15:32:42;;;;;;;3.80;3.60;;;;;;;;;;5007341;28;20416;-91
2022/08/01 15:35:09;;;;;;;2.10;2.10;;;;;;;;;;5008134;28;20463;-91
2022/08/01 15:37:36;;;;;;;2.50;2.33;;;;;;;;;;5027701;28;20471;-93
2022/08/01 15:40:08;;;;;;;2.83;2.77;;;;;;;;;;4990407;28;20467;-92
2022/08/01 15:42:40;;;;;;;2.47;2.47;;;;;;;;;;4996426;28;20491;-93
2022/08/01 15:45:07;;;;;;;2.80;2.80;;;;;;;;;;5001728;28;20427;-91
2022/08/01 15:47:33;;;;;;;2.80;2.70;;;;;;;;;;5009990;28;20466;-91
2022/08/01 15:50:14;;;;;;;3.20;3.20;;;;;;;;;;5005242;28;20444;-90
2022/08/01 15:52:40;;;;;;;4.23;4.07;;;;;;;;;;4991187;28;20419;-92
2022/08/01 15:55:09;;;;;;;3.63;3.63;;;;;;;;;;4988382;28;20527;-93
2022/08/01 15:57:35;;;;;;;4.23;4.03;;;;;;;;;;4308392;28;10000084;-90
2022/08/01 16:00:01;;;;;;;4.20;3.97;;;;;;;;;;5030876;28;20201;-92
2022/08/01 16:02:27;;;;;;;3.87;3.83;;;;;;;;;;5006195;28;20432;-91
2022/08/01 16:04:53;;;;;;;3.40;3.10;;;;;;;;;;4988692;28;20519;-91
2022/08/01 16:07:22;;;;;;;3.10;3.10;;;;;;;;;;5018445;28;20471;-89
2022/08/01 16:09:48;;;;;;;3.30;3.20;;;;;;;;;;5007629;28;20432;-90
2022/08/01 16:12:14;;;;;;;4.27;4.03;;;;;;;;;;5001115;28;20424;-92
2022/08/01 16:14:40;;;;;;;3.80;3.50;;;;;;;;;;4989505;28;20448;-93
2022/08/01 16:17:07;;;;;;;5.50;3.40;;;;;;;;;;5007165;28;20448;-91
2022/08/01 16:19:44;;;;;;;3.17;3.07;;;;;;;;;;4993001;28;21110;-93
2022/08/01 16:22:10;;;;;;;3.60;3.60;;;;;;;;;;4997707;28;20408;-93
2022/08/01 16:24:37;;;;;;;3.27;3.20;;;;;;;;;;4991757;28;20440;-94
2022/08/01 16:27:03;;;;;;;3.53;3.43;;;;;;;;;;4978046;28;20509;-94
2022/08/01 16:29:37;;;;;;;3.13;3.00;;;;;;;;;;4976157;28;20418;-92
2022/08/01 16:32:03;;;;;;;2.80;2.70;;;;;;;;;;4959913;29;20473;-92
2022/08/01 16:34:29;;;;;;;3.70;3.10;;;;;;;;;;4975429;28;20468;-92
2022/08/01 16:36:57;;;;;;;2.97;2.87;;;;;;;;;;4979609;28;20428;-90
2022/08/01 16:39:24;;;;;;;2.80;2.80;;;;;;;;;;4980539;28;20421;-91
2022/08/01 16:41:52;;;;;;;3.33;3.10;;;;;;;;;;4965944;28;20501;-91
2022/08/01 16:44:23;;;;;;;2.30;2.30;;;;;;;;;;4991283;28;20638;-90
2022/08/01 16:46:49;;;;;;;2.93;2.83;;;;;;;;;;4980069;28;21003;-92
2022/08/01 16:49:15;;;;;;;2.93;2.90;;;;;;;;;;4979589;28;20417;-90
2022/08/01 16:51:41;;;;;;;3.10;3.00;;;;;;;;;;4956222;28;20448;-90
2022/08/01 16:54:07;;;;;;;3.67;3.50;;;;;;;;;;4976181;28;21124;-92
2022/08/01 16:56:33;;;;;;;3.37;3.17;;;;;;;;;;4967010;28;20863;-90
2022/08/01 16:59:01;;;;;;;4.23;3.93;;;;;;;;;;4975766;28;21017;-90
2022/08/01 17:01:37;;;;;;;2.90;2.80;;;;;;;;;;4977354;28;20859;-90
2022/08/01 17:04:42;;;;;;;2.90;2.80;;;;;;;;;;4968042;28;20445;-91
2022/08/01 17:10:05;;;;;;;3.43;3.33;;;;;;;;;;4625639;28;10001291;-91
2022/08/01 17:12:41;;;;;;;3.40;3.40;;;;;;;;;;4960181;28;20507;-91
2022/08/01 17:15:11;;;;;;;3.03;2.90;;;;;;;;;;4977146;28;20964;-92
2022/08/01 17:17:39;;;;;;;3.17;3.17;;;;;;;;;;4977076;28;20444;-92
2022/08/01 17:20:09;;;;;;;4.47;4.27;;;;;;;;;;4977909;28;20480;-93
2022/08/01 17:22:38;;;;;;;3.63;3.50;;;;;;;;;;4978502;28;20909;-92
2022/08/01 17:25:36;;;;;;;3.60;3.50;;;;;;;;;;4976236;28;20471;-91
2022/08/01 17:28:09;;;;;;;3.90;3.90;;;;;;;;;;4959262;28;20550;-91
2022/08/01 17:30:37;;;;;;;5.07;4.87;;;;;;;;;;4977813;28;20442;-92
2022/08/01 17:33:03;;;;;;;5.10;4.90;;;;;;;;;;4982647;28;20425;-93
2022/08/01 17:35:38;;;;;;;6.63;6.23;;;;;;;;;;4968564;28;20493;-92
2022/08/01 17:38:04;;;;;;;5.30;5.00;;;;;;;;;;4972951;28;20433;-91
2022/08/01 17:40:30;;;;;;;4.97;4.77;;;;;;;;;;4974687;28;20441;-91
2022/08/01 17:42:57;;;;;;;4.40;4.13;;;;;;;;;;4974816;28;20431;-91
2022/08/01 17:45:23;;;;;;;3.33;3.23;;;;;;;;;;4964678;28;20442;-92
2022/08/01 17:47:49;;;;;;;4.03;3.83;;;;;;;;;;4971436;28;20457;-93
2022/08/01 17:50:15;;;;;;;3.97;3.87;;;;;;;;;;4967981;28;20877;-91
2022/08/01 17:52:41;;;;;;;3.80;3.70;;;;;;;;;;4977559;28;20432;-92
2022/08/01 17:55:10;;;;;;;5.60;5.30;;;;;;;;;;4965888;28;20547;-90
2022/08/01 17:57:36;;;;;;;4.97;4.67;;;;;;;;;;4966754;28;20453;-91
2022/08/01 18:00:04;;;;;;;5.23;4.80;;;;;;;;;;4956889;28;20438;-90
2022/08/01 18:02:30;;;;;;;6.43;6.03;;;;;;;;;;4971133;28;20409;-91
2022/08/01 18:04:59;;;;;;;6.17;5.70;;;;;;;;;;4967856;28;20457;-91
2022/08/01 18:07:25;;;;;;;3.30;3.10;;;;;;;;;;4971500;28;20489;-90
2022/08/01 18:09:54;;;;;;;3.70;3.50;;;;;;;;;;4969897;28;20532;-92
2022/08/01 18:12:20;;;;;;;3.70;3.40;;;;;;;;;;4955986;28;20458;-91
2022/08/01 18:14:46;;;;;;;4.37;4.07;;;;;;;;;;4969021;28;20446;-92
2022/08/01 18:17:13;;;;;;;3.63;3.40;;;;;;;;;;4970463;28;20433;-90
2022/08/01 18:19:39;;;;;;;3.40;3.30;;;;;;;;;;4971585;28;20448;-90
2022/08/01 18:22:08;;;;;;;2.77;2.67;;;;;;;;;;4968678;28;20468;-93
2022/08/01 18:24:34;;;;;;;2.87;2.87;;;;;;;;;;4965122;28;20500;-92
2022/08/01 18:27:00;;;;;;;2.90;2.80;;;;;;;;;;4967138;28;21101;-88
2022/08/01 18:29:26;;;;;;;3.40;3.30;;;;;;;;;;4971031;28;20417;-91
2022/08/01 18:31:54;;;;;;;3.23;3.03;;;;;;;;;;4962295;28;20551;-90
2022/08/01 18:34:22;;;;;;;4.23;3.93;;;;;;;;;;4961810;28;20476;-90
2022/08/01 18:36:48;;;;;;;3.40;3.20;;;;;;;;;;4965377;28;20509;-90
2022/08/01 18:39:14;;;;;;;3.23;3.03;;;;;;;;;;4969251;28;20444;-91
2022/08/01 18:41:40;;;;;;;3.37;3.27;;;;;;;;;;4958826;28;20444;-91
2022/08/01 18:44:07;;;;;;;2.57;2.37;;;;;;;;;;4963695;28;20429;-90
2022/08/01 18:46:33;;;;;;;2.90;2.80;;;;;;;;;;4964607;28;20561;-93
2022/08/01 18:48:59;;;;;;;4.10;2.80;;;;;;;;;;4963153;28;20516;-93
2022/08/01 18:51:26;;;;;;;3.50;3.50;;;;;;;;;;4966769;28;20445;-92
2022/08/01 18:53:54;;;;;;;3.70;3.50;;;;;;;;;;4973040;28;20437;-92
2022/08/01 18:56:20;;;;;;;3.63;3.43;;;;;;;;;;4959702;28;20450;-93
2022/08/01 18:58:46;;;;;;;2.30;2.30;;;;;;;;;;4960222;28;20436;-94
2022/08/01 19:01:12;;;;;;;2.87;2.77;;;;;;;;;;4959855;28;20834;-91
2022/08/01 19:03:39;;;;;;;22.87;20.57;;;;;;;;;;4969143;28;20513;-91
2022/08/01 19:06:05;;;;;;;4.17;3.90;;;;;;;;;;4961176;28;20492;-89
2022/08/01 19:08:31;;;;;;;2.70;2.60;;;;;;;;;;4969218;28;20445;-90
2022/08/01 19:10:58;;;;;;;5.83;3.53;;;;;;;;;;4961168;28;20450;-91
2022/08/01 19:13:27;;;;;;;6.07;3.80;;;;;;;;;;4970535;28;20452;-90
2022/08/01 19:15:56;;;;;;;3.40;2.90;;;;;;;;;;4958728;28;20819;-93
2022/08/01 19:18:23;;;;;;;3.00;2.80;;;;;;;;;;4968139;28;20437;-95
2022/08/01 19:20:50;;;;;;;4.50;3.20;;;;;;;;;;4975764;28;20433;-90
2022/08/01 19:26:02;;;;;;;2.87;2.77;;;;;;;;;;4967100;28;20421;-91
2022/08/01 19:28:28;;;;;;;2.70;2.60;;;;;;;;;;4991132;28;20470;-94
2022/08/01 19:30:54;;;;;;;4.27;3.67;;;;;;;;;;4989905;28;20429;-92
2022/08/01 19:33:21;;;;;;;3.93;3.47;;;;;;;;;;4988384;28;20976;-93
2022/08/01 19:35:50;;;;;;;3.90;2.70;;;;;;;;;;4994110;28;20464;-94
2022/08/01 19:38:17;;;;;;;3.37;3.23;;;;;;;;;;4998302;28;20426;-93
2022/08/01 19:40:43;;;;;;;3.70;3.60;;;;;;;;;;4979603;28;20432;-94
2022/08/01 19:43:10;;;;;;;3.07;3.00;;;;;;;;;;4997499;28;20499;-92
2022/08/01 19:45:36;;;;;;;2.97;2.83;;;;;;;;;;4984398;28;20866;-92
2022/08/01 19:48:04;;;;;;;4.00;3.70;;;;;;;;;;4993447;28;20456;-86